Time,TemperatureF,DewpointF,PressureIn,WindDirection,WindDirectionDegrees,WindSpeedMPH,WindSpeedGustMPH,Humidity,HourlyPrecipIn,Conditions,Clouds,dailyrainin,SoftwareType,DateUTC
2013-05-06 00:01:00,51.1,48.2,29.96,North,0,0.0,0.0,90,0.00,,,0.00,WUHU216EASYWX,2013-05-06 05:01:00,
2013-05-06 00:06:00,51.1,48.2,29.96,North,0,0.0,0.0,90,0.00,,,0.00,WUHU216EASYWX,2013-05-06 05:06:00,
2013-05-06 00:11:00,49.3,46.6,29.97,North,0,0.0,0.0,90,0.00,,,0.00,WUHU216EASYWX,2013-05-06 05:11:00,
2013-05-06 00:16:00,49.3,46.6,29.96,North,0,0.0,0.0,90,0.00,,,0.00,WUHU216EASYWX,2013-05-06 05:16:00,
2013-05-06 00:21:00,49.3,46.6,29.96,North,0,0.0,0.0,90,0.00,,,0.00,WUHU216EASYWX,2013-05-06 05:21:00,
2013-05-06 00:26:00,49.1,46.4,29.96,North,0,0.0,0.0,90,0.00,,,0.00,WUHU216EASYWX,2013-05-06 05:26:00,
2013-05-06 00:31:00,49.1,46.6,29.96,North,0,0.0,0.0,91,0.00,,,0.00,WUHU216EASYWX,2013-05-06 05:31:00,
2013-05-06 00:36:00,49.3,47.1,29.97,NE,45,0.7,0.7,92,0.00,,,0.00,WUHU216EASYWX,2013-05-06 05:36:00,
2013-05-06 00:41:00,49.3,47.1,29.96,North,0,0.0,0.0,92,0.00,,,0.00,WUHU216EASYWX,2013-05-06 05:41:00,
2013-05-06 00:46:00,48.9,46.4,29.96,North,0,0.0,0.0,91,0.00,,,0.00,WUHU216EASYWX,2013-05-06 05:46:00,
2013-05-06 00:51:00,48.7,46.2,29.96,North,0,0.0,0.0,91,0.00,,,0.00,WUHU216EASYWX,2013-05-06 05:51:00,
2013-05-06 00:56:00,48.7,46.6,29.96,North,0,0.0,0.0,92,0.00,,,0.00,WUHU216EASYWX,2013-05-06 05:56:00,
2013-05-06 01:01:00,48.7,46.6,29.96,North,0,0.0,0.0,92,0.00,,,0.00,WUHU216EASYWX,2013-05-06 06:01:00,
2013-05-06 01:06:00,48.7,46.6,29.96,North,0,0.0,0.0,92,0.00,,,0.00,WUHU216EASYWX,2013-05-06 06:06:00,
2013-05-06 01:11:00,48.7,46.6,29.96,North,0,0.0,0.0,92,0.00,,,0.00,WUHU216EASYWX,2013-05-06 06:11:00,
2013-05-06 01:16:00,48.6,46.4,29.96,North,0,0.0,0.0,92,0.00,,,0.00,WUHU216EASYWX,2013-05-06 06:16:00,
2013-05-06 01:21:00,48.6,46.4,29.96,East,90,0.0,0.0,92,0.00,,,0.00,WUHU216EASYWX,2013-05-06 06:21:00,
2013-05-06 01:26:00,48.4,46.2,29.95,North,0,0.0,0.0,92,0.00,,,0.00,WUHU216EASYWX,2013-05-06 06:26:00,
2013-05-06 01:31:00,48.4,46.4,29.96,North,0,0.0,0.0,93,0.00,,,0.00,WUHU216EASYWX,2013-05-06 06:31:00,
2013-05-06 01:36:00,48.4,46.2,29.95,North,0,0.0,0.0,92,0.00,,,0.00,WUHU216EASYWX,2013-05-06 06:36:00,
2013-05-06 01:41:00,48.4,46.4,29.95,North,0,0.0,0.0,93,0.00,,,0.00,WUHU216EASYWX,2013-05-06 06:41:00,
2013-05-06 01:46:00,48.4,46.4,29.95,North,0,0.0,0.0,93,0.00,,,0.00,WUHU216EASYWX,2013-05-06 06:46:00,
2013-05-06 01:51:00,48.4,46.4,29.95,North,0,0.0,0.0,93,0.00,,,0.00,WUHU216EASYWX,2013-05-06 06:51:00,
2013-05-06 01:56:00,48.2,46.2,29.95,North,0,0.0,0.0,93,0.00,,,0.00,WUHU216EASYWX,2013-05-06 06:56:00,
2013-05-06 02:01:00,48.2,46.2,29.95,North,0,0.0,0.0,93,0.00,,,0.00,WUHU216EASYWX,2013-05-06 07:01:00,
2013-05-06 02:06:00,48.2,46.2,29.95,North,0,0.0,0.0,93,0.00,,,0.00,WUHU216EASYWX,2013-05-06 07:06:00,
2013-05-06 02:11:00,48.0,46.0,29.94,North,0,0.0,0.0,93,0.00,,,0.00,WUHU216EASYWX,2013-05-06 07:11:00,
2013-05-06 02:16:00,48.0,46.0,29.95,North,0,0.0,0.0,93,0.00,,,0.00,WUHU216EASYWX,2013-05-06 07:16:00,
2013-05-06 02:21:00,48.0,46.0,29.95,North,0,0.0,0.0,93,0.00,,,0.00,WUHU216EASYWX,2013-05-06 07:21:00,
2013-05-06 02:26:00,48.0,46.0,29.95,North,0,0.0,0.0,93,0.00,,,0.00,WUHU216EASYWX,2013-05-06 07:26:00,
2013-05-06 02:31:00,47.8,45.9,29.95,North,0,0.0,0.0,93,0.00,,,0.00,WUHU216EASYWX,2013-05-06 07:31:00,
2013-05-06 02:36:00,47.5,45.5,29.95,North,0,0.0,0.0,93,0.00,,,0.00,WUHU216EASYWX,2013-05-06 07:36:00,
2013-05-06 02:41:00,47.5,45.5,29.95,NW,315,0.0,0.0,93,0.00,,,0.00,WUHU216EASYWX,2013-05-06 07:41:00,
2013-05-06 02:46:00,47.3,45.3,29.95,North,0,0.0,0.0,93,0.00,,,0.00,WUHU216EASYWX,2013-05-06 07:46:00,
2013-05-06 02:51:00,46.9,45.0,29.94,North,0,0.0,0.0,93,0.00,,,0.00,WUHU216EASYWX,2013-05-06 07:51:00,
2013-05-06 02:56:00,46.9,45.0,29.95,North,0,0.0,0.0,93,0.00,,,0.00,WUHU216EASYWX,2013-05-06 07:56:00,
2013-05-06 03:01:00,46.6,45.0,29.94,North,0,0.0,0.0,94,0.00,,,0.00,WUHU216EASYWX,2013-05-06 08:01:00,
2013-05-06 03:06:00,46.4,44.8,29.94,North,0,0.0,0.0,94,0.00,,,0.00,WUHU216EASYWX,2013-05-06 08:06:00,
2013-05-06 03:11:00,46.4,44.8,29.94,North,0,0.0,0.0,94,0.00,,,0.00,WUHU216EASYWX,2013-05-06 08:11:00,
2013-05-06 03:16:00,46.4,44.8,29.94,North,0,0.0,0.0,94,0.00,,,0.00,WUHU216EASYWX,2013-05-06 08:16:00,
2013-05-06 03:21:00,46.4,44.8,29.94,North,0,0.0,0.0,94,0.00,,,0.00,WUHU216EASYWX,2013-05-06 08:21:00,
2013-05-06 03:26:00,46.4,44.8,29.94,North,0,0.0,0.0,94,0.00,,,0.00,WUHU216EASYWX,2013-05-06 08:26:00,
2013-05-06 03:31:00,46.4,44.8,29.94,North,0,0.0,0.0,94,0.00,,,0.00,WUHU216EASYWX,2013-05-06 08:31:00,
2013-05-06 03:36:00,46.4,44.8,29.95,East,90,0.7,0.7,94,0.00,,,0.00,WUHU216EASYWX,2013-05-06 08:36:00,
2013-05-06 03:41:00,46.2,44.6,29.95,North,0,0.0,0.0,94,0.00,,,0.00,WUHU216EASYWX,2013-05-06 08:41:00,
2013-05-06 03:46:00,46.0,44.4,29.95,North,0,0.0,0.0,94,0.00,,,0.00,WUHU216EASYWX,2013-05-06 08:46:00,
2013-05-06 03:51:00,46.0,44.4,29.95,North,0,0.0,0.0,94,0.00,,,0.00,WUHU216EASYWX,2013-05-06 08:51:00,
2013-05-06 03:56:00,45.9,44.2,29.95,North,0,0.0,0.0,94,0.00,,,0.00,WUHU216EASYWX,2013-05-06 08:56:00,
2013-05-06 04:01:00,45.7,44.1,29.95,North,0,0.0,0.0,94,0.00,,,0.00,WUHU216EASYWX,2013-05-06 09:01:00,
2013-05-06 04:06:00,45.7,44.1,29.95,North,0,0.0,0.0,94,0.00,,,0.00,WUHU216EASYWX,2013-05-06 09:06:00,
2013-05-06 04:11:00,45.7,44.1,29.95,North,0,0.0,0.0,94,0.00,,,0.00,WUHU216EASYWX,2013-05-06 09:11:00,
2013-05-06 04:16:00,45.5,43.9,29.95,North,0,0.0,0.0,94,0.00,,,0.00,WUHU216EASYWX,2013-05-06 09:16:00,
2013-05-06 04:21:00,45.3,43.7,29.95,North,0,0.0,0.0,94,0.00,,,0.00,WUHU216EASYWX,2013-05-06 09:21:00,
2013-05-06 04:26:00,45.0,43.3,29.95,North,0,0.0,0.0,94,0.00,,,0.00,WUHU216EASYWX,2013-05-06 09:26:00,
2013-05-06 04:31:00,44.8,43.2,29.95,North,0,0.0,0.0,94,0.00,,,0.00,WUHU216EASYWX,2013-05-06 09:31:00,
2013-05-06 04:36:00,45.1,43.9,29.95,North,0,0.0,0.0,95,0.00,,,0.00,WUHU216EASYWX,2013-05-06 09:36:00,
2013-05-06 04:41:00,45.1,43.9,29.95,North,0,0.0,0.0,95,0.00,,,0.00,WUHU216EASYWX,2013-05-06 09:41:00,
2013-05-06 04:46:00,45.5,44.2,29.95,North,0,0.0,0.0,95,0.00,,,0.00,WUHU216EASYWX,2013-05-06 09:46:00,
2013-05-06 04:51:00,45.3,44.1,29.95,North,0,0.0,0.0,95,0.00,,,0.00,WUHU216EASYWX,2013-05-06 09:51:00,
2013-05-06 04:56:00,45.3,44.1,29.95,SW,225,0.0,0.0,95,0.00,,,0.00,WUHU216EASYWX,2013-05-06 09:56:00,
2013-05-06 05:01:00,45.3,44.1,29.95,North,0,0.0,0.0,95,0.00,,,0.00,WUHU216EASYWX,2013-05-06 10:01:00,
2013-05-06 05:06:00,45.5,44.2,29.95,North,0,0.0,0.0,95,0.00,,,0.00,WUHU216EASYWX,2013-05-06 10:06:00,
2013-05-06 05:11:00,45.5,44.2,29.94,North,0,0.0,0.0,95,0.00,,,0.00,WUHU216EASYWX,2013-05-06 10:11:00,
2013-05-06 05:16:00,45.5,44.2,29.95,North,0,0.0,0.0,95,0.00,,,0.00,WUHU216EASYWX,2013-05-06 10:16:00,
2013-05-06 05:21:00,45.5,44.2,29.95,North,0,0.0,0.0,95,0.00,,,0.00,WUHU216EASYWX,2013-05-06 10:21:00,
2013-05-06 05:26:00,45.7,44.4,29.95,North,0,0.0,0.0,95,0.00,,,0.00,WUHU216EASYWX,2013-05-06 10:26:00,
2013-05-06 05:31:00,45.9,44.6,29.95,North,0,0.0,0.0,95,0.00,,,0.00,WUHU216EASYWX,2013-05-06 10:31:00,
2013-05-06 05:36:00,46.2,45.0,29.95,West,270,0.7,0.7,95,0.00,,,0.00,WUHU216EASYWX,2013-05-06 10:36:00,
2013-05-06 05:41:00,46.2,45.0,29.96,North,0,0.0,0.0,95,0.00,,,0.00,WUHU216EASYWX,2013-05-06 10:41:00,
2013-05-06 05:46:00,46.6,45.3,29.96,North,0,0.0,0.0,95,0.00,,,0.00,WUHU216EASYWX,2013-05-06 10:46:00,
2013-05-06 05:51:00,46.6,45.3,29.96,North,0,0.7,0.7,95,0.00,,,0.00,WUHU216EASYWX,2013-05-06 10:51:00,
2013-05-06 05:56:00,46.9,45.7,29.95,NW,315,0.7,0.7,95,0.00,,,0.00,WUHU216EASYWX,2013-05-06 10:56:00,
2013-05-06 06:01:00,47.1,45.9,29.95,NW,315,0.7,0.7,95,0.00,,,0.00,WUHU216EASYWX,2013-05-06 11:01:00,
2013-05-06 06:06:00,47.1,45.9,29.95,NW,315,0.7,0.7,95,0.00,,,0.00,WUHU216EASYWX,2013-05-06 11:06:00,
2013-05-06 06:11:00,47.3,46.2,29.95,North,0,0.0,0.0,96,0.00,,,0.00,WUHU216EASYWX,2013-05-06 11:11:00,
2013-05-06 06:16:00,47.3,46.2,29.95,North,0,0.0,1.6,96,0.00,,,0.00,WUHU216EASYWX,2013-05-06 11:16:00,
2013-05-06 06:21:00,47.3,46.0,29.95,North,0,0.0,0.0,95,0.00,,,0.00,WUHU216EASYWX,2013-05-06 11:21:00,
2013-05-06 06:26:00,47.3,46.0,29.96,NW,315,0.7,0.7,95,0.00,,,0.00,WUHU216EASYWX,2013-05-06 11:26:00,
2013-05-06 06:31:00,47.5,46.4,29.96,NW,315,0.7,0.7,96,0.00,,,0.00,WUHU216EASYWX,2013-05-06 11:31:00,
2013-05-06 06:36:00,47.5,46.4,29.96,West,270,0.7,0.7,96,0.00,,,0.00,WUHU216EASYWX,2013-05-06 11:36:00,
2013-05-06 06:41:00,47.3,46.2,29.96,NW,315,1.6,1.6,96,0.00,,,0.00,WUHU216EASYWX,2013-05-06 11:41:00,
2013-05-06 06:46:00,47.5,46.4,29.97,NE,45,0.7,0.7,96,0.00,,,0.00,WUHU216EASYWX,2013-05-06 11:46:00,
2013-05-06 06:51:00,47.5,46.4,29.97,NW,315,0.7,0.7,96,0.00,,,0.00,WUHU216EASYWX,2013-05-06 11:51:00,
2013-05-06 06:56:00,47.5,46.4,29.97,North,0,0.7,0.7,96,0.00,,,0.00,WUHU216EASYWX,2013-05-06 11:56:00,
2013-05-06 07:01:00,48.0,46.9,29.97,NW,315,1.6,1.6,96,0.00,,,0.00,WUHU216EASYWX,2013-05-06 12:01:00,
2013-05-06 07:06:00,48.0,46.9,29.97,North,0,1.6,1.6,96,0.00,,,0.00,WUHU216EASYWX,2013-05-06 12:06:00,
2013-05-06 07:11:00,48.7,48.0,29.97,North,0,3.1,3.1,97,0.00,,,0.00,WUHU216EASYWX,2013-05-06 12:11:00,
2013-05-06 07:16:00,48.9,47.8,29.98,East,90,3.8,3.8,96,0.00,,,0.00,WUHU216EASYWX,2013-05-06 12:16:00,
2013-05-06 07:21:00,49.1,48.0,29.98,WNW,293,3.8,3.8,96,0.00,,,0.00,WUHU216EASYWX,2013-05-06 12:21:00,
2013-05-06 07:26:00,49.1,48.0,29.98,SW,225,1.6,1.6,96,0.00,,,0.00,WUHU216EASYWX,2013-05-06 12:26:00,
2013-05-06 07:31:00,49.1,47.8,29.98,WNW,293,3.8,3.8,95,0.00,,,0.00,WUHU216EASYWX,2013-05-06 12:31:00,
2013-05-06 07:36:00,49.1,47.8,29.98,WNW,293,3.8,8.3,95,0.00,,,0.00,WUHU216EASYWX,2013-05-06 12:36:00,
2013-05-06 07:41:00,49.1,47.8,29.98,NW,315,2.2,2.2,95,0.00,,,0.00,WUHU216EASYWX,2013-05-06 12:41:00,
2013-05-06 07:46:00,49.3,48.0,29.99,NE,45,1.6,1.6,95,0.00,,,0.00,WUHU216EASYWX,2013-05-06 12:46:00,
2013-05-06 07:51:00,49.1,47.8,29.99,North,0,3.1,3.1,95,0.00,,,0.00,WUHU216EASYWX,2013-05-06 12:51:00,
2013-05-06 07:56:00,49.5,48.0,29.99,NW,315,0.7,0.7,95,0.00,,,0.00,WUHU216EASYWX,2013-05-06 12:56:00,
2013-05-06 08:01:00,49.5,48.0,29.99,NW,315,0.7,0.7,95,0.00,,,0.00,WUHU216EASYWX,2013-05-06 13:01:00,
2013-05-06 08:06:00,49.6,48.2,29.99,North,0,0.7,0.7,95,0.00,,,0.00,WUHU216EASYWX,2013-05-06 13:06:00,
2013-05-06 08:11:00,49.6,48.0,29.99,NE,45,1.6,1.6,94,0.00,,,0.00,WUHU216EASYWX,2013-05-06 13:11:00,
2013-05-06 08:16:00,50.0,48.4,30.00,NW,315,0.7,0.7,94,0.00,,,0.00,WUHU216EASYWX,2013-05-06 13:16:00,
2013-05-06 08:21:00,50.0,48.4,30.00,NW,315,0.7,0.7,94,0.00,,,0.00,WUHU216EASYWX,2013-05-06 13:21:00,
2013-05-06 08:26:00,50.0,48.4,30.00,East,90,2.2,2.2,94,0.00,,,0.00,WUHU216EASYWX,2013-05-06 13:26:00,
2013-05-06 08:31:00,50.0,48.4,30.00,North,0,1.6,1.6,94,0.00,,,0.00,WUHU216EASYWX,2013-05-06 13:31:00,
2013-05-06 08:36:00,50.0,48.4,30.00,NW,315,1.6,1.6,94,0.00,,,0.00,WUHU216EASYWX,2013-05-06 13:36:00,
2013-05-06 08:41:00,50.0,48.0,30.00,NW,315,1.6,1.6,93,0.00,,,0.00,WUHU216EASYWX,2013-05-06 13:41:00,
2013-05-06 08:46:00,50.0,48.0,30.00,East,90,1.6,1.6,93,0.00,,,0.00,WUHU216EASYWX,2013-05-06 13:46:00,
2013-05-06 08:51:00,50.0,48.0,29.99,East,90,2.2,2.2,93,0.00,,,0.00,WUHU216EASYWX,2013-05-06 13:51:00,
2013-05-06 08:56:00,50.0,48.0,29.99,East,90,2.2,3.8,93,0.00,,,0.00,WUHU216EASYWX,2013-05-06 13:56:00,
2013-05-06 09:01:00,50.4,48.7,30.00,SSE,158,0.7,0.7,94,0.00,,,0.00,WUHU216EASYWX,2013-05-06 14:01:00,
2013-05-06 09:06:00,50.5,48.9,30.00,North,0,0.7,0.7,94,0.00,,,0.00,WUHU216EASYWX,2013-05-06 14:06:00,
2013-05-06 09:11:00,50.5,48.9,30.00,North,0,0.7,0.7,94,0.00,,,0.00,WUHU216EASYWX,2013-05-06 14:11:00,
2013-05-06 09:16:00,50.7,48.7,29.99,North,0,2.2,2.2,93,0.00,,,0.00,WUHU216EASYWX,2013-05-06 14:16:00,
2013-05-06 09:21:00,51.1,48.9,30.00,North,0,0.0,0.0,92,0.00,,,0.00,WUHU216EASYWX,2013-05-06 14:21:00,
2013-05-06 09:26:00,51.1,48.6,30.00,West,270,2.2,2.2,91,0.00,,,0.00,WUHU216EASYWX,2013-05-06 14:26:00,
2013-05-06 09:31:00,51.3,48.7,30.00,NE,45,3.8,3.8,91,0.00,,,0.00,WUHU216EASYWX,2013-05-06 14:31:00,
2013-05-06 09:36:00,51.4,48.9,30.00,West,270,2.2,2.2,91,0.00,,,0.00,WUHU216EASYWX,2013-05-06 14:36:00,
2013-05-06 09:41:00,51.6,48.7,30.00,NE,45,1.6,1.6,90,0.00,,,0.00,WUHU216EASYWX,2013-05-06 14:41:00,
2013-05-06 09:46:00,51.8,48.9,30.00,NW,315,3.1,3.1,90,0.00,,,0.00,WUHU216EASYWX,2013-05-06 14:46:00,
2013-05-06 09:51:00,51.8,48.9,30.01,West,270,2.2,2.2,90,0.00,,,0.00,WUHU216EASYWX,2013-05-06 14:51:00,
2013-05-06 09:56:00,52.0,49.1,30.01,West,270,0.7,0.7,90,0.00,,,0.00,WUHU216EASYWX,2013-05-06 14:56:00,
2013-05-06 10:01:00,52.3,49.3,30.01,West,270,3.1,3.1,89,0.00,,,0.00,WUHU216EASYWX,2013-05-06 15:01:00,
2013-05-06 10:06:00,52.3,49.3,30.01,West,270,3.1,3.1,89,0.00,,,0.00,WUHU216EASYWX,2013-05-06 15:06:00,
2013-05-06 10:11:00,52.5,49.5,30.01,NE,45,1.6,1.6,89,0.00,,,0.00,WUHU216EASYWX,2013-05-06 15:11:00,
2013-05-06 10:16:00,52.5,49.5,30.01,NE,45,1.6,3.1,89,0.00,,,0.00,WUHU216EASYWX,2013-05-06 15:16:00,
2013-05-06 10:21:00,52.5,49.1,30.01,NW,315,1.6,1.6,88,0.00,,,0.00,WUHU216EASYWX,2013-05-06 15:21:00,
2013-05-06 10:26:00,52.7,49.3,30.01,North,0,2.2,2.2,88,0.00,,,0.00,WUHU216EASYWX,2013-05-06 15:26:00,
2013-05-06 10:31:00,52.7,49.3,30.01,NW,315,1.6,1.6,88,0.00,,,0.00,WUHU216EASYWX,2013-05-06 15:31:00,
2013-05-06 10:36:00,52.3,48.9,30.01,SW,225,3.1,3.1,88,0.00,,,0.00,WUHU216EASYWX,2013-05-06 15:36:00,
2013-05-06 10:41:00,52.7,49.6,30.02,NE,45,2.2,2.2,89,0.00,,,0.00,WUHU216EASYWX,2013-05-06 15:41:00,
2013-05-06 10:46:00,52.9,49.1,30.02,North,0,0.7,0.7,87,0.00,,,0.00,WUHU216EASYWX,2013-05-06 15:46:00,
2013-05-06 10:51:00,53.1,49.3,30.02,SW,225,0.7,0.7,87,0.00,,,0.00,WUHU216EASYWX,2013-05-06 15:51:00,
2013-05-06 10:56:00,53.1,49.3,30.02,NW,315,1.6,1.6,87,0.00,,,0.00,WUHU216EASYWX,2013-05-06 15:56:00,
2013-05-06 11:01:00,53.6,49.5,30.02,North,0,0.7,0.7,86,0.00,,,0.00,WUHU216EASYWX,2013-05-06 16:01:00,
2013-05-06 11:06:00,53.6,49.3,30.02,NW,315,3.8,3.8,85,0.00,,,0.00,WUHU216EASYWX,2013-05-06 16:06:00,
2013-05-06 11:11:00,53.4,49.1,30.02,West,270,3.1,3.1,85,0.00,,,0.00,WUHU216EASYWX,2013-05-06 16:11:00,
2013-05-06 11:16:00,53.4,49.3,30.02,North,0,0.0,0.0,86,0.00,,,0.00,WUHU216EASYWX,2013-05-06 16:16:00,
2013-05-06 11:21:00,54.3,50.0,30.02,East,90,0.7,0.7,85,0.00,,,0.00,WUHU216EASYWX,2013-05-06 16:21:00,
2013-05-06 11:26:00,54.9,49.8,30.02,East,90,1.6,1.6,83,0.00,,,0.00,WUHU216EASYWX,2013-05-06 16:26:00,
2013-05-06 11:31:00,54.9,49.8,30.02,NNW,338,2.2,2.2,83,0.00,,,0.00,WUHU216EASYWX,2013-05-06 16:31:00,
2013-05-06 11:36:00,54.9,49.8,30.02,NNW,338,2.2,6.0,83,0.00,,,0.00,WUHU216EASYWX,2013-05-06 16:36:00,
2013-05-06 11:41:00,55.0,50.0,30.02,NW,315,2.2,2.2,83,0.00,,,0.00,WUHU216EASYWX,2013-05-06 16:41:00,
2013-05-06 11:46:00,55.2,50.2,30.01,North,0,1.6,1.6,83,0.00,,,0.00,WUHU216EASYWX,2013-05-06 16:46:00,
2013-05-06 11:51:00,55.4,50.0,30.02,North,0,2.2,2.2,82,0.00,,,0.00,WUHU216EASYWX,2013-05-06 16:51:00,
2013-05-06 11:56:00,55.8,50.0,30.01,North,0,2.2,2.2,81,0.00,,,0.00,WUHU216EASYWX,2013-05-06 16:56:00,
2013-05-06 12:01:00,55.8,49.6,30.01,NW,315,3.8,3.8,80,0.00,,,0.00,WUHU216EASYWX,2013-05-06 17:01:00,
2013-05-06 12:06:00,55.8,50.0,30.01,NW,315,1.6,1.6,81,0.00,,,0.00,WUHU216EASYWX,2013-05-06 17:06:00,
2013-05-06 12:11:00,57.7,50.9,30.01,West,270,1.6,1.6,78,0.00,,,0.00,WUHU216EASYWX,2013-05-06 17:11:00,
2013-05-06 12:16:00,57.2,50.0,30.01,West,270,3.1,3.1,77,0.00,,,0.00,WUHU216EASYWX,2013-05-06 17:16:00,
2013-05-06 12:21:00,57.6,50.4,30.01,North,0,4.5,4.5,77,0.00,,,0.00,WUHU216EASYWX,2013-05-06 17:21:00,
2013-05-06 12:26:00,58.5,51.3,30.01,NE,45,1.6,1.6,77,0.00,,,0.00,WUHU216EASYWX,2013-05-06 17:26:00,
2013-05-06 12:31:00,58.8,50.9,30.01,NE,45,3.8,3.8,75,0.00,,,0.00,WUHU216EASYWX,2013-05-06 17:31:00,
2013-05-06 12:36:00,59.0,51.1,30.00,North,0,2.2,2.2,75,0.00,,,0.00,WUHU216EASYWX,2013-05-06 17:36:00,
2013-05-06 12:41:00,59.5,51.3,30.00,North,0,3.1,3.1,74,0.00,,,0.00,WUHU216EASYWX,2013-05-06 17:41:00,
2013-05-06 12:46:00,59.7,51.8,30.00,West,270,0.7,0.7,75,0.00,,,0.00,WUHU216EASYWX,2013-05-06 17:46:00,
2013-05-06 12:52:00,59.5,51.3,30.00,NE,45,1.6,1.6,74,0.00,,,0.00,WUHU216EASYWX,2013-05-06 17:52:00,
2013-05-06 12:57:00,60.3,52.0,30.00,North,0,0.7,0.7,74,0.00,,,0.00,WUHU216EASYWX,2013-05-06 17:57:00,
2013-05-06 13:02:00,60.1,51.1,30.00,NW,315,2.2,2.2,72,0.00,,,0.00,WUHU216EASYWX,2013-05-06 18:02:00,
2013-05-06 13:07:00,60.1,51.1,30.00,NW,315,2.2,2.2,72,0.00,,,0.00,WUHU216EASYWX,2013-05-06 18:07:00,
2013-05-06 13:12:00,61.3,52.0,30.00,West,270,0.7,0.7,71,0.00,,,0.00,WUHU216EASYWX,2013-05-06 18:12:00,
2013-05-06 13:17:00,61.3,52.0,30.00,West,270,0.7,3.1,71,0.00,,,0.00,WUHU216EASYWX,2013-05-06 18:17:00,
2013-05-06 13:22:00,61.3,52.0,29.99,West,270,1.6,1.6,71,0.00,,,0.00,WUHU216EASYWX,2013-05-06 18:22:00,
2013-05-06 13:27:00,62.1,51.4,29.99,NNE,27,2.7,3.1,68,0.00,,,0.00,WUHU216EASYWX,2013-05-06 18:27:00,
2013-05-06 13:32:00,62.4,51.8,29.99,NE,45,1.9,3.1,68,0.00,,,0.00,WUHU216EASYWX,2013-05-06 18:32:00,
2013-05-06 13:37:00,62.6,51.6,29.99,WNW,293,1.6,1.6,67,0.00,,,0.00,WUHU216EASYWX,2013-05-06 18:37:00,
2013-05-06 13:42:00,62.8,52.2,29.99,East,90,2.2,2.2,68,0.00,,,0.00,WUHU216EASYWX,2013-05-06 18:42:00,
2013-05-06 13:47:00,63.1,52.0,29.98,ESE,113,0.7,0.7,67,0.00,,,0.00,WUHU216EASYWX,2013-05-06 18:47:00,
2013-05-06 13:52:00,64.2,52.3,29.99,NE,45,1.6,1.6,65,0.00,,,0.00,WUHU216EASYWX,2013-05-06 18:52:00,
2013-05-06 13:57:00,64.0,52.2,29.99,North,0,3.1,3.1,65,0.00,,,0.00,WUHU216EASYWX,2013-05-06 18:57:00,
2013-05-06 14:02:00,64.0,52.2,29.99,North,0,1.6,1.6,65,0.00,,,0.00,WUHU216EASYWX,2013-05-06 19:02:00,
2013-05-06 14:07:00,64.0,52.2,29.98,North,0,1.6,1.6,65,0.00,,,0.00,WUHU216EASYWX,2013-05-06 19:07:00,
2013-05-06 14:12:00,64.2,52.3,29.99,NE,45,3.8,3.8,65,0.00,,,0.00,WUHU216EASYWX,2013-05-06 19:12:00,
2013-05-06 14:17:00,64.8,52.3,29.98,NE,45,1.6,1.6,64,0.00,,,0.00,WUHU216EASYWX,2013-05-06 19:17:00,
2013-05-06 14:22:00,64.9,52.2,29.98,NE,45,4.5,4.5,63,0.00,,,0.00,WUHU216EASYWX,2013-05-06 19:22:00,
2013-05-06 14:27:00,65.3,52.3,29.98,North,0,1.6,1.6,63,0.00,,,0.00,WUHU216EASYWX,2013-05-06 19:27:00,
2013-05-06 14:32:00,66.7,52.5,29.98,North,0,1.6,1.6,60,0.00,,,0.00,WUHU216EASYWX,2013-05-06 19:32:00,
2013-05-06 14:37:00,66.9,52.7,29.98,SE,135,2.2,2.2,60,0.00,,,0.00,WUHU216EASYWX,2013-05-06 19:37:00,
2013-05-06 14:42:00,67.1,53.2,29.98,NE,45,1.6,1.6,61,0.00,,,0.00,WUHU216EASYWX,2013-05-06 19:42:00,
2013-05-06 14:47:00,67.6,52.3,29.98,East,90,0.7,0.7,58,0.00,,,0.00,WUHU216EASYWX,2013-05-06 19:47:00,
2013-05-06 14:52:00,67.5,52.7,29.98,NW,315,0.7,0.7,59,0.00,,,0.00,WUHU216EASYWX,2013-05-06 19:52:00,
2013-05-06 14:57:00,66.9,52.7,29.97,East,90,2.2,2.2,60,0.00,,,0.00,WUHU216EASYWX,2013-05-06 19:57:00,
2013-05-06 15:02:00,66.2,52.0,29.97,NE,45,5.4,5.4,60,0.00,,,0.00,WUHU216EASYWX,2013-05-06 20:02:00,
2013-05-06 15:07:00,66.2,52.0,29.97,NE,45,5.4,5.4,60,0.00,,,0.00,WUHU216EASYWX,2013-05-06 20:07:00,
2013-05-06 15:12:00,67.1,52.3,29.96,NW,315,4.5,4.5,59,0.00,,,0.00,WUHU216EASYWX,2013-05-06 20:12:00,
2013-05-06 15:17:00,66.2,52.3,29.96,West,270,0.7,0.7,61,0.00,,,0.00,WUHU216EASYWX,2013-05-06 20:17:00,
2013-05-06 15:22:00,67.1,52.3,29.96,NE,45,2.2,2.2,59,0.00,,,0.00,WUHU216EASYWX,2013-05-06 20:22:00,
2013-05-06 15:27:00,68.0,52.7,29.96,West,270,1.6,1.6,58,0.00,,,0.00,WUHU216EASYWX,2013-05-06 20:27:00,
2013-05-06 15:32:00,68.5,52.3,29.96,North,0,2.2,2.2,56,0.00,,,0.00,WUHU216EASYWX,2013-05-06 20:32:00,
2013-05-06 15:37:00,69.3,52.9,29.95,ENE,68,1.6,1.6,56,0.00,,,0.00,WUHU216EASYWX,2013-05-06 20:37:00,
2013-05-06 15:42:00,69.4,52.7,29.96,North,0,1.6,1.6,55,0.00,,,0.00,WUHU216EASYWX,2013-05-06 20:42:00,
2013-05-06 15:47:00,68.9,52.5,29.95,East,90,4.5,4.5,56,0.00,,,0.00,WUHU216EASYWX,2013-05-06 20:47:00,
2013-05-06 15:52:00,69.3,52.5,29.94,NW,315,3.1,3.1,55,0.00,,,0.00,WUHU216EASYWX,2013-05-06 20:52:00,
2013-05-06 15:57:00,69.1,52.3,29.94,NW,315,3.1,3.1,55,0.00,,,0.00,WUHU216EASYWX,2013-05-06 20:57:00,
2013-05-06 16:02:00,68.9,53.1,29.94,East,90,0.7,0.7,57,0.00,,,0.00,WUHU216EASYWX,2013-05-06 21:02:00,
2013-05-06 16:07:00,68.9,53.1,29.93,East,90,0.7,0.7,57,0.00,,,0.00,WUHU216EASYWX,2013-05-06 21:07:00,
2013-05-06 16:12:00,68.2,53.8,29.93,North,0,0.0,0.0,60,0.00,,,0.00,WUHU216EASYWX,2013-05-06 21:12:00,
2013-05-06 16:17:00,69.1,53.2,29.93,West,270,3.1,3.1,57,0.00,,,0.00,WUHU216EASYWX,2013-05-06 21:17:00,
2013-05-06 16:22:00,68.9,53.6,29.93,West,270,1.6,1.6,58,0.00,,,0.00,WUHU216EASYWX,2013-05-06 21:22:00,
2013-05-06 16:27:00,69.1,52.3,29.93,NW,315,4.5,4.5,55,0.00,,,0.00,WUHU216EASYWX,2013-05-06 21:27:00,
2013-05-06 16:32:00,69.3,53.4,29.93,West,270,3.1,3.1,57,0.00,,,0.00,WUHU216EASYWX,2013-05-06 21:32:00,
2013-05-06 16:37:00,69.3,52.9,29.92,North,0,0.7,0.7,56,0.00,,,0.00,WUHU216EASYWX,2013-05-06 21:37:00,
2013-05-06 16:42:00,69.4,53.1,29.92,West,270,0.7,0.7,56,0.00,,,0.00,WUHU216EASYWX,2013-05-06 21:42:00,
2013-05-06 16:47:00,70.3,53.4,29.92,North,0,0.7,0.7,55,0.00,,,0.00,WUHU216EASYWX,2013-05-06 21:47:00,
2013-05-06 16:52:00,70.7,52.7,29.92,East,90,2.2,2.2,53,0.00,,,0.00,WUHU216EASYWX,2013-05-06 21:52:00,
2013-05-06 16:57:00,70.5,53.1,29.92,NW,315,1.6,1.6,54,0.00,,,0.00,WUHU216EASYWX,2013-05-06 21:57:00,
2013-05-06 17:02:00,70.9,52.5,29.91,East,90,2.2,2.2,52,0.00,,,0.00,WUHU216EASYWX,2013-05-06 22:02:00,
2013-05-06 17:07:00,70.9,52.5,29.91,East,90,2.2,2.2,52,0.00,,,0.00,WUHU216EASYWX,2013-05-06 22:07:00,
2013-05-06 17:12:00,70.9,52.0,29.91,NE,45,1.6,1.6,51,0.00,,,0.00,WUHU216EASYWX,2013-05-06 22:12:00,
2013-05-06 17:17:00,70.5,51.6,29.91,North,0,1.6,1.6,51,0.00,,,0.00,WUHU216EASYWX,2013-05-06 22:17:00,
2013-05-06 17:22:00,70.5,51.6,29.91,North,0,1.6,1.6,51,0.00,,,0.00,WUHU216EASYWX,2013-05-06 22:22:00,
2013-05-06 17:27:00,71.6,50.9,29.91,NE,45,1.6,1.6,48,0.00,,,0.00,WUHU216EASYWX,2013-05-06 22:27:00,
2013-05-06 17:32:00,72.0,51.8,29.90,NE,45,1.6,1.6,49,0.00,,,0.00,WUHU216EASYWX,2013-05-06 22:32:00,
2013-05-06 17:37:00,72.5,52.3,29.91,South,180,0.7,0.7,49,0.00,,,0.00,WUHU216EASYWX,2013-05-06 22:37:00,
2013-05-06 17:42:00,73.0,52.9,29.91,NE,45,0.7,0.7,49,0.00,,,0.00,WUHU216EASYWX,2013-05-06 22:42:00,
2013-05-06 17:47:00,73.2,50.0,29.91,NE,45,3.1,3.1,44,0.00,,,0.00,WUHU216EASYWX,2013-05-06 22:47:00,
2013-05-06 17:52:00,72.1,50.9,29.90,SE,135,1.6,1.6,47,0.00,,,0.00,WUHU216EASYWX,2013-05-06 22:52:00,
2013-05-06 17:57:00,72.0,51.8,29.90,North,0,0.0,0.0,49,0.00,,,0.00,WUHU216EASYWX,2013-05-06 22:57:00,
2013-05-06 18:02:00,72.5,52.3,29.90,West,270,1.6,1.6,49,0.00,,,0.00,WUHU216EASYWX,2013-05-06 23:02:00,
2013-05-06 18:07:00,72.5,52.3,29.90,West,270,1.6,1.6,49,0.00,,,0.00,WUHU216EASYWX,2013-05-06 23:07:00,
2013-05-06 18:12:00,72.1,52.5,29.89,North,0,0.0,0.0,50,0.00,,,0.00,WUHU216EASYWX,2013-05-06 23:12:00,
2013-05-06 18:17:00,72.0,51.8,29.89,SE,135,0.7,0.7,49,0.00,,,0.00,WUHU216EASYWX,2013-05-06 23:17:00,
2013-05-06 18:22:00,72.0,51.8,29.90,NE,45,2.2,2.2,49,0.00,,,0.00,WUHU216EASYWX,2013-05-06 23:22:00,
2013-05-06 18:27:00,71.6,52.0,29.90,NW,315,0.7,0.7,50,0.00,,,0.00,WUHU216EASYWX,2013-05-06 23:27:00,
2013-05-06 18:32:00,72.1,52.5,29.90,East,90,1.6,1.6,50,0.00,,,0.00,WUHU216EASYWX,2013-05-06 23:32:00,
2013-05-06 18:37:00,71.8,52.2,29.89,NE,45,1.6,1.6,50,0.00,,,0.00,WUHU216EASYWX,2013-05-06 23:37:00,
2013-05-06 18:42:00,72.1,52.5,29.89,SE,135,2.2,2.2,50,0.00,,,0.00,WUHU216EASYWX,2013-05-06 23:42:00,
2013-05-06 18:47:00,71.8,52.2,29.90,North,0,3.1,3.1,50,0.00,,,0.00,WUHU216EASYWX,2013-05-06 23:47:00,
2013-05-06 18:52:00,71.2,51.6,29.90,NE,45,0.7,0.7,50,0.00,,,0.00,WUHU216EASYWX,2013-05-06 23:52:00,
2013-05-06 18:57:00,71.2,52.2,29.90,NE,45,2.2,2.2,51,0.00,,,0.00,WUHU216EASYWX,2013-05-06 23:57:00,
2013-05-06 19:02:00,70.9,52.5,29.90,West,270,1.6,1.6,52,0.00,,,0.00,WUHU216EASYWX,2013-05-07 00:02:00,
2013-05-06 19:07:00,70.9,52.5,29.90,West,270,1.6,1.6,52,0.00,,,0.00,WUHU216EASYWX,2013-05-07 00:07:00,
2013-05-06 19:12:00,70.5,52.7,29.90,North,0,0.0,0.0,53,0.00,,,0.00,WUHU216EASYWX,2013-05-07 00:12:00,
2013-05-06 19:17:00,70.7,52.3,29.90,NE,45,0.7,0.7,52,0.00,,,0.00,WUHU216EASYWX,2013-05-07 00:17:00,
2013-05-06 19:22:00,70.3,52.0,29.90,South,180,0.7,0.7,52,0.00,,,0.00,WUHU216EASYWX,2013-05-07 00:22:00,
2013-05-06 19:27:00,70.0,52.2,29.91,North,0,0.0,0.0,53,0.00,,,0.00,WUHU216EASYWX,2013-05-07 00:27:00,
2013-05-06 19:32:00,69.6,52.3,29.91,North,0,0.0,0.0,54,0.00,,,0.00,WUHU216EASYWX,2013-05-07 00:32:00,
2013-05-06 19:37:00,69.4,52.2,29.91,NE,45,0.7,0.7,54,0.00,,,0.00,WUHU216EASYWX,2013-05-07 00:37:00,
2013-05-06 19:42:00,68.9,51.6,29.91,NE,45,0.7,0.7,54,0.00,,,0.00,WUHU216EASYWX,2013-05-07 00:42:00,
2013-05-06 19:47:00,68.5,51.8,29.91,North,0,0.7,0.7,55,0.00,,,0.00,WUHU216EASYWX,2013-05-07 00:47:00,
2013-05-06 19:52:00,68.0,52.7,29.91,East,90,0.7,0.7,58,0.00,,,0.00,WUHU216EASYWX,2013-05-07 00:52:00,
2013-05-06 19:57:00,66.9,53.1,29.91,North,0,0.0,0.0,61,0.00,,,0.00,WUHU216EASYWX,2013-05-07 00:57:00,
2013-05-06 20:02:00,66.6,52.7,29.92,North,0,0.0,0.0,61,0.00,,,0.00,WUHU216EASYWX,2013-05-07 01:02:00,
2013-05-06 20:07:00,66.6,52.7,29.92,North,0,0.0,0.0,61,0.00,,,0.00,WUHU216EASYWX,2013-05-07 01:07:00,
2013-05-06 20:12:00,64.8,52.7,29.92,North,0,0.0,0.0,65,0.00,,,0.00,WUHU216EASYWX,2013-05-07 01:12:00,
2013-05-06 20:17:00,64.0,52.5,29.92,East,90,0.7,0.7,66,0.00,,,0.00,WUHU216EASYWX,2013-05-07 01:17:00,
2013-05-06 20:22:00,63.5,52.3,29.92,North,0,0.0,0.0,67,0.00,,,0.00,WUHU216EASYWX,2013-05-07 01:22:00,
2013-05-06 20:27:00,63.1,52.0,29.92,North,0,0.0,0.0,67,0.00,,,0.00,WUHU216EASYWX,2013-05-07 01:27:00,
2013-05-06 20:32:00,62.8,52.5,29.92,NE,45,0.7,0.7,69,0.00,,,0.00,WUHU216EASYWX,2013-05-07 01:32:00,
2013-05-06 20:37:00,62.6,52.7,29.92,NE,45,0.7,0.7,70,0.00,,,0.00,WUHU216EASYWX,2013-05-07 01:37:00,
2013-05-06 20:42:00,62.4,52.5,29.93,North,0,0.0,0.0,70,0.00,,,0.00,WUHU216EASYWX,2013-05-07 01:42:00,
2013-05-06 20:47:00,62.2,52.7,29.93,East,90,0.7,0.7,71,0.00,,,0.00,WUHU216EASYWX,2013-05-07 01:47:00,
2013-05-06 20:52:00,62.1,52.5,29.93,North,0,0.0,0.0,71,0.00,,,0.00,WUHU216EASYWX,2013-05-07 01:52:00,
2013-05-06 20:57:00,61.7,52.7,29.93,North,0,0.0,0.0,72,0.00,,,0.00,WUHU216EASYWX,2013-05-07 01:57:00,
2013-05-06 21:02:00,61.5,52.5,29.93,North,0,0.0,0.0,72,0.00,,,0.00,WUHU216EASYWX,2013-05-07 02:02:00,
2013-05-06 21:07:00,61.5,52.5,29.94,North,0,0.0,0.0,72,0.00,,,0.00,WUHU216EASYWX,2013-05-07 02:07:00,
2013-05-06 21:12:00,60.8,52.5,29.93,North,0,0.0,0.0,74,0.00,,,0.00,WUHU216EASYWX,2013-05-07 02:12:00,
2013-05-06 21:17:00,60.4,52.2,29.94,North,0,0.0,0.0,74,0.00,,,0.00,WUHU216EASYWX,2013-05-07 02:17:00,
2013-05-06 21:23:00,60.1,52.2,29.94,North,0,0.0,0.0,75,0.00,,,0.00,WUHU216EASYWX,2013-05-07 02:23:00,
2013-05-06 21:28:00,59.7,52.2,29.94,North,0,0.0,0.0,76,0.00,,,0.00,WUHU216EASYWX,2013-05-07 02:28:00,
2013-05-06 21:33:00,59.5,52.3,29.94,North,0,0.0,0.0,77,0.00,,,0.00,WUHU216EASYWX,2013-05-07 02:33:00,
2013-05-06 21:38:00,59.4,52.5,29.94,North,0,0.0,0.0,78,0.00,,,0.00,WUHU216EASYWX,2013-05-07 02:38:00,
2013-05-06 21:43:00,59.2,52.7,29.94,SE,135,0.7,0.7,79,0.00,,,0.00,WUHU216EASYWX,2013-05-07 02:43:00,
2013-05-06 21:48:00,59.0,52.2,29.95,North,0,0.0,0.0,78,0.00,,,0.00,WUHU216EASYWX,2013-05-07 02:48:00,
2013-05-06 21:53:00,58.6,52.2,29.95,North,0,0.0,0.0,79,0.00,,,0.00,WUHU216EASYWX,2013-05-07 02:53:00,
2013-05-06 21:58:00,58.3,51.8,29.95,North,0,0.0,0.0,79,0.00,,,0.00,WUHU216EASYWX,2013-05-07 02:58:00,
2013-05-06 22:03:00,58.1,51.6,29.95,North,0,0.0,0.0,79,0.00,,,0.00,WUHU216EASYWX,2013-05-07 03:03:00,
2013-05-06 22:08:00,58.1,51.6,29.95,North,0,0.0,0.0,79,0.00,,,0.00,WUHU216EASYWX,2013-05-07 03:08:00,
2013-05-06 22:13:00,57.4,52.0,29.95,North,0,0.0,0.0,82,0.00,,,0.00,WUHU216EASYWX,2013-05-07 03:13:00,
2013-05-06 22:18:00,57.2,52.2,29.95,East,90,0.7,0.7,83,0.00,,,0.00,WUHU216EASYWX,2013-05-07 03:18:00,
2013-05-06 22:23:00,56.8,51.8,29.95,North,0,0.0,0.0,83,0.00,,,0.00,WUHU216EASYWX,2013-05-07 03:23:00,
2013-05-06 22:28:00,56.8,52.3,29.96,North,0,0.0,0.0,85,0.00,,,0.00,WUHU216EASYWX,2013-05-07 03:28:00,
2013-05-06 22:33:00,57.0,52.3,29.95,North,0,0.0,0.0,84,0.00,,,0.00,WUHU216EASYWX,2013-05-07 03:33:00,
2013-05-06 22:38:00,56.8,51.8,29.95,North,0,0.0,0.0,83,0.00,,,0.00,WUHU216EASYWX,2013-05-07 03:38:00,
2013-05-06 22:43:00,57.2,52.7,29.95,North,0,0.0,0.0,85,0.00,,,0.00,WUHU216EASYWX,2013-05-07 03:43:00,
2013-05-06 22:48:00,57.4,52.9,29.95,North,0,0.7,0.7,85,0.00,,,0.00,WUHU216EASYWX,2013-05-07 03:48:00,
2013-05-06 22:53:00,57.6,52.9,29.95,North,0,0.0,0.0,84,0.00,,,0.00,WUHU216EASYWX,2013-05-07 03:53:00,
2013-05-06 22:58:00,57.9,53.4,29.96,North,0,0.0,0.0,85,0.00,,,0.00,WUHU216EASYWX,2013-05-07 03:58:00,
2013-05-06 23:03:00,57.9,53.1,29.96,North,0,0.0,0.0,84,0.00,,,0.00,WUHU216EASYWX,2013-05-07 04:03:00,
2013-05-06 23:08:00,57.9,53.1,29.95,North,0,0.0,0.0,84,0.00,,,0.00,WUHU216EASYWX,2013-05-07 04:08:00,
2013-05-06 23:13:00,58.1,53.6,29.95,North,0,0.7,0.7,85,0.00,,,0.00,WUHU216EASYWX,2013-05-07 04:13:00,
2013-05-06 23:18:00,58.1,53.6,29.95,NW,315,0.7,0.7,85,0.00,,,0.00,WUHU216EASYWX,2013-05-07 04:18:00,
2013-05-06 23:23:00,58.3,53.8,29.95,NE,45,2.2,2.2,85,0.00,,,0.00,WUHU216EASYWX,2013-05-07 04:23:00,
2013-05-06 23:28:00,58.5,53.6,29.95,NE,45,0.7,0.7,84,0.00,,,0.00,WUHU216EASYWX,2013-05-07 04:28:00,
2013-05-06 23:33:00,58.3,53.4,29.95,NE,45,0.7,0.7,84,0.00,,,0.00,WUHU216EASYWX,2013-05-07 04:33:00,
2013-05-06 23:38:00,58.1,53.6,29.94,East,90,0.7,0.7,85,0.00,,,0.00,WUHU216EASYWX,2013-05-07 04:38:00,
2013-05-06 23:43:00,57.7,53.2,29.94,NE,45,0.7,0.7,85,0.00,,,0.00,WUHU216EASYWX,2013-05-07 04:43:00,
2013-05-06 23:48:00,57.6,53.4,29.94,NE,45,0.7,0.7,86,0.00,,,0.00,WUHU216EASYWX,2013-05-07 04:48:00,
2013-05-06 23:53:00,57.4,53.2,29.94,NE,45,0.7,0.7,86,0.00,,,0.00,WUHU216EASYWX,2013-05-07 04:53:00,
2013-05-06 23:58:00,57.2,53.1,29.94,NE,45,0.7,0.7,86,0.00,,,0.00,WUHU216EASYWX,2013-05-07 04:58:00,